createdAt,value
2023-01-05T00:00:33.257Z,40.20
2023-01-05T00:03:00.466Z,39.03
2023-01-05T00:05:27.543Z,32.83
2023-01-05T00:07:54.743Z,36.88
2023-01-05T00:10:40.322Z,33.45
2023-01-05T00:13:27.595Z,33.38
2023-01-05T00:16:20.405Z,40.65
2023-01-05T00:19:07.082Z,30.77
2023-01-05T00:21:53.656Z,42.50
2023-01-05T00:24:21.177Z,35.38
2023-01-05T00:26:50.194Z,37.33
2023-01-05T00:29:17.488Z,36.53
2023-01-05T00:31:47.430Z,33.45
2023-01-05T00:34:15.195Z,37.00
2023-01-05T00:36:42.297Z,27.20
2023-01-05T00:39:10.763Z,42.95
2023-01-05T00:41:40.602Z,43.20
2023-01-05T00:44:10.758Z,32.22
2023-01-05T00:46:37.898Z,40.38
2023-01-05T00:49:05.042Z,44.85
2023-01-05T00:51:32.244Z,43.35
2023-01-05T00:54:00.414Z,39.22
2023-01-05T00:56:27.425Z,37.42
2023-01-05T00:58:55.315Z,41.22
2023-01-05T01:01:22.652Z,41.10
2023-01-05T01:03:49.894Z,40.28
2023-01-05T01:06:18.426Z,39.35
2023-01-05T01:08:45.517Z,39.78
2023-01-05T01:11:13.248Z,34.97
2023-01-05T01:13:40.983Z,37.65
2023-01-05T01:16:16.059Z,46.53
2023-01-05T01:18:43.690Z,44.22
2023-01-05T01:21:10.968Z,47.58
2023-01-05T01:23:40.008Z,42.05
2023-01-05T01:26:11.084Z,47.28
2023-01-05T01:28:40.644Z,39.15
2023-01-05T01:31:10.939Z,37.47
2023-01-05T01:33:40.909Z,42.20
2023-01-05T01:36:10.399Z,36.60
2023-01-05T01:38:37.968Z,33.63
2023-01-05T01:41:09.704Z,39.47
2023-01-05T01:46:15.458Z,39.92
2023-01-05T01:48:52.200Z,43.95
2023-01-05T01:51:27.325Z,32.92
2023-01-05T01:54:07.187Z,40.45
2023-01-05T01:56:48.757Z,40.35
2023-01-05T01:59:17.882Z,42.92
2023-01-05T02:01:48.179Z,39.50
2023-01-05T02:04:15.445Z,41.40
2023-01-05T02:06:42.910Z,46.85
2023-01-05T02:09:17.726Z,44.13
2023-01-05T02:12:06.265Z,44.05
2023-01-05T02:14:48.404Z,43.20
2023-01-05T02:17:40.006Z,45.25
2023-01-05T02:20:29.544Z,52.33
2023-01-05T02:23:36.337Z,39.40
2023-01-05T02:26:37.981Z,46.28
2023-01-05T02:29:39.603Z,36.00
2023-01-05T02:32:34.099Z,38.65
2023-01-05T02:35:10.870Z,42.13
2023-01-05T02:38:09.622Z,49.25
2023-01-05T02:40:45.151Z,47.22
2023-01-05T02:43:14.314Z,43.30
2023-01-05T02:45:42.453Z,40.83
2023-01-05T02:48:13.108Z,42.50
2023-01-05T02:51:01.696Z,38.13
2023-01-05T02:53:33.924Z,37.05
2023-01-05T02:56:09.076Z,46.97
2023-01-05T02:59:01.596Z,40.08
2023-01-05T03:01:40.292Z,49.70
2023-01-05T03:04:16.503Z,45.08
2023-01-05T03:07:00.791Z,47.90
2023-01-05T03:09:38.035Z,43.47
2023-01-05T03:12:36.060Z,46.03
2023-01-05T03:15:10.843Z,43.38
2023-01-05T03:17:54.847Z,47.20
2023-01-05T03:20:25.113Z,44.40
2023-01-05T03:26:04.847Z,48.80
2023-01-05T03:28:59.047Z,57.40
2023-01-05T03:32:03.055Z,42.22
2023-01-05T03:35:10.276Z,62.90
2023-01-05T03:37:45.044Z,45.40
2023-01-05T03:40:22.456Z,48.78
2023-01-05T03:42:52.840Z,47.95
2023-01-05T03:45:26.127Z,42.95
2023-01-05T03:47:53.834Z,43.85
2023-01-05T03:50:26.426Z,53.93
2023-01-05T03:52:54.541Z,39.80
2023-01-05T03:55:24.590Z,53.83
2023-01-05T03:57:53.907Z,36.10
2023-01-05T04:00:22.144Z,45.70
2023-01-05T04:02:58.805Z,43.80
2023-01-05T04:05:29.129Z,48.83
2023-01-05T04:07:56.250Z,40.05
2023-01-05T04:10:24.074Z,42.53
2023-01-05T04:12:52.186Z,43.13
2023-01-05T04:15:19.401Z,48.65
2023-01-05T04:17:47.970Z,39.90
2023-01-05T04:20:15.248Z,50.00
2023-01-05T04:22:44.298Z,45.05
2023-01-05T04:25:13.116Z,32.90
2023-01-05T04:27:43.824Z,51.45
2023-01-05T04:30:12.946Z,46.33
2023-01-05T04:32:40.408Z,48.15
2023-01-05T04:35:11.906Z,38.97
2023-01-05T04:37:40.952Z,47.72
2023-01-05T04:40:09.418Z,44.05
2023-01-05T04:42:45.263Z,42.58
2023-01-05T04:45:16.425Z,43.03
2023-01-05T04:47:46.897Z,48.88
2023-01-05T04:50:19.794Z,38.60
2023-01-05T04:52:51.080Z,45.08
2023-01-05T04:55:24.167Z,52.70
2023-01-05T04:57:52.949Z,50.45
2023-01-05T05:00:22.575Z,40.90
2023-01-05T05:02:55.378Z,48.22
2023-01-05T05:05:24.069Z,47.35
2023-01-05T05:07:55.132Z,39.75
2023-01-05T05:12:55.476Z,46.55
2023-01-05T05:15:25.592Z,49.53
2023-01-05T05:17:53.783Z,43.38
2023-01-05T05:20:23.311Z,46.95
2023-01-05T05:22:50.703Z,41.47
2023-01-05T05:25:20.600Z,52.50
2023-01-05T05:27:48.811Z,48.13
2023-01-05T05:30:15.722Z,51.85
2023-01-05T05:32:48.683Z,53.05
2023-01-05T05:35:16.192Z,49.05
2023-01-05T05:37:43.247Z,40.58
2023-01-05T05:40:11.674Z,44.78
2023-01-05T05:42:39.667Z,45.58
2023-01-05T05:45:07.400Z,50.58
2023-01-05T05:47:37.416Z,49.17
2023-01-05T05:50:07.308Z,45.72
2023-01-05T05:52:38.504Z,50.72
2023-01-05T05:55:10.268Z,51.88
2023-01-05T05:57:38.332Z,56.92
2023-01-05T06:00:06.266Z,54.03
2023-01-05T06:02:40.567Z,41.80
2023-01-05T06:05:09.233Z,56.58
2023-01-05T06:07:37.571Z,51.47
2023-01-05T06:10:06.691Z,63.05
2023-01-05T06:12:33.783Z,58.70
2023-01-05T06:15:00.923Z,59.13
2023-01-05T06:17:30.199Z,46.80
2023-01-05T06:19:58.016Z,49.90
2023-01-05T06:22:25.239Z,55.70
2023-01-05T06:24:53.453Z,56.58
2023-01-05T06:27:20.411Z,53.47
2023-01-05T06:29:51.473Z,60.70
2023-01-05T06:32:21.726Z,58.13
2023-01-05T06:34:50.152Z,54.97
2023-01-05T06:37:21.861Z,53.97
2023-01-05T06:39:49.360Z,54.45
2023-01-05T06:42:23.092Z,43.70
2023-01-05T06:44:50.614Z,53.85
2023-01-05T06:47:18.124Z,47.08
2023-01-05T06:49:45.453Z,50.65
2023-01-05T06:52:16.238Z,48.30
2023-01-05T06:54:44.264Z,48.50
2023-01-05T06:57:12.502Z,47.30
2023-01-05T06:59:43.497Z,53.67
2023-01-05T07:02:16.326Z,46.03
2023-01-05T07:04:45.573Z,49.85
2023-01-05T07:07:15.700Z,50.05
2023-01-05T07:09:43.688Z,41.75
2023-01-05T07:12:16.414Z,52.83
2023-01-05T07:14:44.154Z,42.05
2023-01-05T07:17:13.471Z,62.28
2023-01-05T07:19:41.832Z,50.35
2023-01-05T07:22:09.056Z,34.85
2023-01-05T07:24:37.488Z,51.03
2023-01-05T07:27:09.972Z,47.80
2023-01-05T07:29:37.521Z,45.80
2023-01-05T07:32:07.371Z,47.88
2023-01-05T07:34:34.972Z,39.15
2023-01-05T07:37:01.962Z,45.70
2023-01-05T07:39:29.010Z,40.38
2023-01-05T07:41:56.071Z,41.17
2023-01-05T07:44:25.915Z,54.80
2023-01-05T07:46:56.338Z,50.38
2023-01-05T07:49:23.479Z,48.78
2023-01-05T07:51:50.454Z,46.35
2023-01-05T07:54:21.644Z,48.97
2023-01-05T07:56:49.810Z,56.75
2023-01-05T07:59:16.893Z,43.67
2023-01-05T08:01:44.061Z,54.95
2023-01-05T08:04:12.445Z,54.53
2023-01-05T08:06:40.502Z,42.55
2023-01-05T08:09:29.257Z,55.03
2023-01-05T08:11:57.313Z,49.90
2023-01-05T08:14:25.241Z,46.88
2023-01-05T08:16:53.811Z,57.17
2023-01-05T08:19:21.730Z,47.78
2023-01-05T08:21:51.376Z,49.53
2023-01-05T08:24:18.484Z,51.90
2023-01-05T08:26:49.245Z,53.47
2023-01-05T08:29:16.199Z,51.78
2023-01-05T08:31:43.195Z,55.17
2023-01-05T08:34:11.382Z,57.10
2023-01-05T08:36:38.628Z,39.67
2023-01-05T08:39:07.327Z,59.90
2023-01-05T08:41:40.917Z,55.92
2023-01-05T08:44:13.772Z,46.65
2023-01-05T08:46:43.436Z,51.40
2023-01-05T08:49:10.933Z,47.28
2023-01-05T08:51:39.379Z,44.15
2023-01-05T08:54:10.210Z,53.13
2023-01-05T08:56:39.271Z,42.90
2023-01-05T08:59:07.624Z,55.10
2023-01-05T09:01:35.041Z,49.55
2023-01-05T09:04:02.168Z,48.42
2023-01-05T09:06:32.532Z,48.03
2023-01-05T09:09:01.031Z,50.80
2023-01-05T09:11:28.184Z,37.17
2023-01-05T09:14:00.710Z,47.30
2023-01-05T09:19:18.335Z,49.83
2023-01-05T09:21:45.675Z,43.10
2023-01-05T09:24:13.241Z,50.42
2023-01-05T09:26:41.520Z,50.17
2023-01-05T09:29:17.836Z,51.78
2023-01-05T09:31:46.735Z,46.53
2023-01-05T09:34:19.872Z,45.63
2023-01-05T09:36:49.194Z,48.25
2023-01-05T09:39:16.418Z,47.50
2023-01-05T09:42:14.286Z,52.42
2023-01-05T09:44:59.037Z,45.40
2023-01-05T09:47:43.032Z,39.05
2023-01-05T09:50:20.651Z,40.83
2023-01-05T09:52:49.726Z,39.28
2023-01-05T09:55:21.718Z,40.13
2023-01-05T09:58:31.379Z,49.65
2023-01-05T10:01:16.052Z,49.42
2023-01-05T10:04:04.998Z,39.60
2023-01-05T10:06:39.106Z,39.00
2023-01-05T10:09:07.281Z,45.78
2023-01-05T10:12:08.991Z,45.08
2023-01-05T10:14:43.430Z,34.25
2023-01-05T10:20:33.177Z,43.95
2023-01-05T10:23:11.066Z,45.88
2023-01-05T10:25:59.833Z,35.70
2023-01-05T10:28:51.763Z,47.97
2023-01-05T10:31:29.278Z,47.42
2023-01-05T10:34:34.727Z,39.90
2023-01-05T10:37:22.101Z,38.70
2023-01-05T10:39:58.386Z,44.05
2023-01-05T10:42:49.144Z,45.45
2023-01-05T10:45:22.036Z,48.05
2023-01-05T10:47:52.820Z,44.15
2023-01-05T10:50:42.306Z,50.47
2023-01-05T10:53:12.530Z,44.60
2023-01-05T10:56:06.183Z,40.65
2023-01-05T10:58:44.189Z,41.90
2023-01-05T11:01:31.767Z,39.67
2023-01-05T11:04:33.324Z,46.72
2023-01-05T11:07:07.372Z,40.13
2023-01-05T11:09:41.173Z,52.13
2023-01-05T11:12:19.348Z,40.67
2023-01-05T11:14:58.091Z,51.38
2023-01-05T11:17:28.691Z,53.80
2023-01-05T11:19:57.528Z,52.83
2023-01-05T11:22:40.580Z,53.85
2023-01-05T11:25:28.240Z,48.53
2023-01-05T11:28:23.607Z,43.58
2023-01-05T11:31:03.421Z,48.65
2023-01-05T11:33:34.754Z,49.30
2023-01-05T11:36:05.709Z,53.53
2023-01-05T11:38:35.727Z,43.47
2023-01-05T11:41:03.739Z,42.95
2023-01-05T11:43:34.462Z,46.03
2023-01-05T11:46:07.881Z,52.65
2023-01-05T11:48:36.411Z,59.13
2023-01-05T11:51:03.551Z,57.83
2023-01-05T11:53:34.974Z,43.80
2023-01-05T11:56:05.458Z,46.40
2023-01-05T11:58:45.586Z,51.95
2023-01-05T12:01:17.522Z,51.97
2023-01-05T12:04:11.874Z,53.95
2023-01-05T12:06:51.372Z,53.30
2023-01-05T12:09:34.993Z,57.88
2023-01-05T12:12:26.372Z,50.40
2023-01-05T12:15:34.309Z,45.55
2023-01-05T12:18:05.005Z,65.40
2023-01-05T12:20:50.030Z,45.72
2023-01-05T12:23:38.797Z,52.60
2023-01-05T12:26:43.743Z,51.08
2023-01-05T12:35:57.461Z,54.63
2023-01-05T12:38:38.306Z,49.78
2023-01-05T12:41:14.644Z,55.00
2023-01-05T12:44:10.728Z,44.38
2023-01-05T12:47:11.657Z,53.33
2023-01-05T12:49:55.121Z,53.85
2023-01-05T12:52:35.012Z,51.03
2023-01-05T12:55:22.316Z,54.88
2023-01-05T12:58:04.182Z,52.70
2023-01-05T13:00:37.431Z,35.90
2023-01-05T13:03:20.815Z,56.17
2023-01-05T13:06:07.122Z,42.53
2023-01-05T13:08:44.724Z,43.47
2023-01-05T13:11:44.570Z,36.83
2023-01-05T13:14:22.195Z,36.15
2023-01-05T13:16:58.363Z,42.13
2023-01-05T13:19:50.494Z,35.13
2023-01-05T13:22:27.366Z,33.53
2023-01-05T13:25:06.220Z,31.30
2023-01-05T13:27:33.729Z,31.23
2023-01-05T13:30:02.767Z,29.50
2023-01-05T13:33:05.296Z,21.73
2023-01-05T13:35:37.460Z,22.95
2023-01-05T13:38:32.960Z,18.90
2023-01-05T13:41:29.270Z,15.90
2023-01-05T13:44:15.458Z,18.17
2023-01-05T13:47:27.948Z,17.95
2023-01-05T13:55:14.686Z,20.70
2023-01-05T13:57:52.471Z,16.58
2023-01-05T14:00:43.082Z,18.08
2023-01-05T14:03:10.605Z,18.55
2023-01-05T14:05:55.978Z,14.48
2023-01-05T14:08:37.125Z,20.02
2023-01-05T14:11:25.733Z,15.65
2023-01-05T14:14:08.665Z,12.00
2023-01-05T14:16:38.501Z,16.98
2023-01-05T14:19:33.549Z,17.30
2023-01-05T14:22:21.783Z,15.52
2023-01-05T14:24:52.419Z,15.30
2023-01-05T14:27:24.600Z,17.63
2023-01-05T14:32:30.568Z,18.15
2023-01-05T14:35:17.124Z,15.68
2023-01-05T14:38:14.973Z,16.80
2023-01-05T14:40:52.932Z,15.57
2023-01-05T14:43:35.966Z,17.55
2023-01-05T14:46:17.856Z,15.00
2023-01-05T14:49:05.342Z,18.58
2023-01-05T14:51:36.989Z,16.45
2023-01-05T14:54:06.497Z,13.18
2023-01-05T14:56:37.953Z,18.98
2023-01-05T14:59:13.821Z,15.75
2023-01-05T15:02:00.852Z,17.08
2023-01-05T15:04:36.306Z,11.88
2023-01-05T15:07:33.260Z,14.60
2023-01-05T15:10:17.602Z,12.70
2023-01-05T15:13:36.840Z,14.27
2023-01-05T15:16:34.342Z,14.70
2023-01-05T15:19:01.255Z,14.23
2023-01-05T15:22:18.442Z,8.27
2023-01-05T15:25:10.788Z,12.52
2023-01-05T15:27:48.074Z,8.68
2023-01-05T15:30:44.467Z,10.88
2023-01-05T15:33:30.425Z,13.07
2023-01-05T15:36:03.710Z,9.00
2023-01-05T15:38:45.391Z,7.63
2023-01-05T15:41:14.434Z,16.48
2023-01-05T15:43:43.898Z,12.88
2023-01-05T15:46:13.349Z,10.70
2023-01-05T15:48:49.199Z,9.23
2023-01-05T15:51:30.756Z,10.43
2023-01-05T15:54:01.942Z,8.95
2023-01-05T15:56:41.498Z,10.95
2023-01-05T15:59:47.671Z,9.55
2023-01-05T16:02:24.706Z,11.10
2023-01-05T16:05:13.156Z,12.65
2023-01-05T16:08:01.775Z,9.27
2023-01-05T16:10:39.024Z,10.23
2023-01-05T16:13:18.477Z,12.88
2023-01-05T16:15:49.571Z,10.70
2023-01-05T16:18:25.251Z,10.27
2023-01-05T16:20:55.050Z,9.68
2023-01-05T16:23:36.239Z,14.70
2023-01-05T16:26:05.065Z,15.23
2023-01-05T16:28:35.910Z,8.98
2023-01-05T16:31:22.685Z,10.68
2023-01-05T16:34:03.481Z,14.20
2023-01-05T16:36:34.229Z,9.70
2023-01-05T16:39:22.017Z,8.55
2023-01-05T16:42:07.825Z,9.35
2023-01-05T16:44:37.182Z,7.30
2023-01-05T16:47:15.623Z,10.18
2023-01-05T16:49:57.341Z,11.73
2023-01-05T16:52:28.988Z,10.23
2023-01-05T16:55:28.194Z,13.13
2023-01-05T16:58:30.327Z,10.05
2023-01-05T17:01:18.011Z,11.88
2023-01-05T17:03:52.558Z,8.02
2023-01-05T17:06:30.136Z,10.40
2023-01-05T17:09:00.743Z,9.18
2023-01-05T17:11:34.401Z,9.20
2023-01-05T17:14:04.633Z,9.43
2023-01-05T17:16:31.968Z,10.77
2023-01-05T17:19:02.610Z,10.82
2023-01-05T17:21:33.151Z,12.63
2023-01-05T17:24:03.887Z,12.05
2023-01-05T17:26:37.552Z,13.00
2023-01-05T17:29:11.035Z,11.25
2023-01-05T17:31:39.984Z,11.60
2023-01-05T17:34:07.101Z,13.85
2023-01-05T17:36:36.006Z,13.00
2023-01-05T17:39:05.105Z,12.63
2023-01-05T17:41:33.008Z,13.07
2023-01-05T17:44:00.114Z,11.93
2023-01-05T17:46:32.009Z,11.30
2023-01-05T17:49:02.100Z,10.88
2023-01-05T17:51:33.341Z,10.65
2023-01-05T17:54:05.146Z,12.20
2023-01-05T17:56:59.038Z,8.35
2023-01-05T17:59:46.304Z,7.82
2023-01-05T18:02:46.259Z,6.75
2023-01-05T18:05:16.180Z,7.20
2023-01-05T18:08:10.604Z,9.60
2023-01-05T18:14:23.625Z,6.85
2023-01-05T18:16:53.653Z,11.73
2023-01-05T18:19:26.046Z,8.48
2023-01-05T18:22:15.971Z,7.18
2023-01-05T18:24:47.794Z,10.30
2023-01-05T18:27:38.706Z,12.13
2023-01-05T18:30:14.831Z,10.88
2023-01-05T18:32:45.110Z,9.25
2023-01-05T18:35:12.275Z,9.77
2023-01-05T18:37:42.536Z,7.57
2023-01-05T18:40:10.579Z,8.80
2023-01-05T18:42:39.356Z,10.23
2023-01-05T18:45:19.817Z,7.45
2023-01-05T18:48:48.602Z,10.18
2023-01-05T18:51:15.790Z,9.40
2023-01-05T18:54:14.930Z,8.45
2023-01-05T18:56:45.440Z,11.15
2023-01-05T18:59:38.580Z,8.50
2023-01-05T19:04:39.724Z,7.20
2023-01-05T19:07:07.278Z,6.93
2023-01-05T19:09:35.659Z,10.00
2023-01-05T19:12:03.351Z,12.68
2023-01-05T19:14:30.289Z,8.95
2023-01-05T19:16:57.285Z,14.00
2023-01-05T19:19:26.724Z,9.52
2023-01-05T19:21:54.714Z,9.77
2023-01-05T19:24:24.842Z,14.35
2023-01-05T19:26:52.765Z,12.00
2023-01-05T19:29:20.841Z,12.57
2023-01-05T19:31:49.329Z,12.10
2023-01-05T19:34:19.629Z,15.32
2023-01-05T19:36:47.955Z,14.52
2023-01-05T19:39:19.980Z,11.95
2023-01-05T19:41:53.355Z,12.93
2023-01-05T19:44:22.887Z,11.98
2023-01-05T19:46:54.275Z,12.65
2023-01-05T19:49:26.491Z,13.02
2023-01-05T19:51:54.961Z,13.30
2023-01-05T19:54:26.403Z,10.50
2023-01-05T19:56:56.853Z,12.52
2023-01-05T19:59:43.918Z,14.35
2023-01-05T20:02:12.587Z,13.32
2023-01-05T20:04:42.720Z,8.90
2023-01-05T20:07:11.677Z,8.60
2023-01-05T20:09:38.676Z,11.98
2023-01-05T20:12:14.403Z,8.68
2023-01-05T20:14:43.087Z,7.40
2023-01-05T20:17:12.346Z,10.55
2023-01-05T20:19:40.163Z,9.50
2023-01-05T20:22:13.818Z,8.98
2023-01-05T20:24:43.087Z,8.88
2023-01-05T20:27:13.946Z,8.68
2023-01-05T20:29:41.423Z,9.32
2023-01-05T20:32:16.933Z,9.55
2023-01-05T20:34:52.023Z,11.80
2023-01-05T20:37:23.604Z,10.07
2023-01-05T20:39:50.912Z,17.10
2023-01-05T20:42:20.220Z,11.13
2023-01-05T20:44:47.548Z,10.65
2023-01-05T20:47:17.788Z,13.48
2023-01-05T20:49:47.280Z,16.60
2023-01-05T20:52:17.794Z,11.93
2023-01-05T20:54:44.952Z,11.77
2023-01-05T20:57:13.259Z,14.57
2023-01-05T20:59:40.888Z,13.65
2023-01-05T21:02:22.578Z,14.77
2023-01-05T21:04:53.216Z,10.55
2023-01-05T21:07:23.328Z,10.60
2023-01-05T21:09:51.531Z,10.93
2023-01-05T21:12:21.272Z,11.10
2023-01-05T21:14:57.692Z,12.57
2023-01-05T21:17:33.917Z,9.57
2023-01-05T21:20:05.501Z,8.18
2023-01-05T21:22:33.137Z,10.18
2023-01-05T21:25:00.132Z,10.25
2023-01-05T21:27:30.342Z,7.88
2023-01-05T21:29:57.795Z,6.60
2023-01-05T21:32:25.741Z,7.97
2023-01-05T21:34:57.280Z,9.90
2023-01-05T21:37:24.389Z,11.85
2023-01-05T21:39:52.328Z,7.13
2023-01-05T21:42:38.590Z,8.75
2023-01-05T21:45:09.910Z,6.85
2023-01-05T21:47:40.420Z,4.72
2023-01-05T21:50:37.268Z,10.13
2023-01-05T21:53:23.889Z,6.10
2023-01-05T21:56:12.071Z,5.70
2023-01-05T21:58:39.085Z,6.00
2023-01-05T22:01:07.012Z,8.80
2023-01-05T22:03:35.435Z,9.95
2023-01-05T22:06:02.483Z,8.57
2023-01-05T22:08:29.459Z,4.65
2023-01-05T22:10:57.700Z,5.25
2023-01-05T22:13:30.112Z,5.15
2023-01-05T22:15:58.338Z,8.93
2023-01-05T22:18:27.352Z,9.23
2023-01-05T22:21:04.404Z,8.38
2023-01-05T22:23:33.342Z,5.32
2023-01-05T22:26:07.873Z,9.57
2023-01-05T22:31:20.639Z,8.38
2023-01-05T22:33:51.166Z,3.88
2023-01-05T22:36:20.352Z,8.18
2023-01-05T22:38:50.138Z,4.00
2023-01-05T22:41:22.179Z,6.70
2023-01-05T22:43:51.685Z,6.72
2023-01-05T22:46:28.160Z,6.78
2023-01-05T22:49:00.148Z,8.95
2023-01-05T22:51:29.711Z,10.43
2023-01-05T22:53:59.700Z,7.40
2023-01-05T22:56:28.324Z,8.77
2023-01-05T22:58:57.572Z,7.78
2023-01-05T23:01:45.234Z,7.40
2023-01-05T23:04:16.148Z,7.97
2023-01-05T23:06:43.200Z,7.55
2023-01-05T23:09:17.739Z,7.28
2023-01-05T23:11:47.075Z,7.35
2023-01-05T23:14:17.460Z,6.72
2023-01-05T23:16:47.323Z,11.18
2023-01-05T23:19:16.853Z,6.32
2023-01-05T23:21:44.492Z,9.77
2023-01-05T23:24:20.689Z,7.40
2023-01-05T23:26:48.733Z,12.73
2023-01-05T23:29:15.841Z,12.43
2023-01-05T23:31:43.872Z,7.75
2023-01-05T23:34:11.584Z,6.07
2023-01-05T23:36:41.191Z,8.35
2023-01-05T23:39:08.254Z,5.07
2023-01-05T23:41:35.763Z,5.90
2023-01-05T23:44:02.828Z,3.05
2023-01-05T23:46:29.955Z,9.50
2023-01-05T23:49:00.058Z,8.48
2023-01-05T23:51:27.212Z,5.22
2023-01-05T23:53:54.238Z,8.52
2023-01-05T23:56:29.519Z,7.07
2023-01-05T23:59:05.480Z,8.40
